createdAt,value
2017-11-23T00:01:57.327Z,6.50
2017-11-23T00:04:24.712Z,7.53
2017-11-23T00:06:52.136Z,7.20
2017-11-23T00:09:19.592Z,7.97
2017-11-23T00:11:47.048Z,7.60
2017-11-23T00:14:14.428Z,7.23
2017-11-23T00:16:41.812Z,7.47
2017-11-23T00:19:09.225Z,7.40
2017-11-23T00:21:36.667Z,7.13
2017-11-23T00:24:04.056Z,6.93
2017-11-23T00:26:31.447Z,7.17
2017-11-23T00:28:58.833Z,7.77
2017-11-23T00:31:26.292Z,7.13
2017-11-23T00:33:53.673Z,7.70
2017-11-23T00:36:21.099Z,6.93
2017-11-23T00:38:48.556Z,6.43
2017-11-23T00:41:15.941Z,5.97
2017-11-23T00:43:43.320Z,6.67
2017-11-23T00:46:10.698Z,6.80
2017-11-23T00:48:38.088Z,6.73
2017-11-23T00:51:05.472Z,6.97
2017-11-23T00:53:32.863Z,6.30
2017-11-23T00:56:00.356Z,6.70
2017-11-23T00:58:27.740Z,5.90
2017-11-23T01:00:55.119Z,6.87
2017-11-23T01:03:22.508Z,6.37
2017-11-23T01:05:49.919Z,5.63
2017-11-23T01:08:17.303Z,7.17
2017-11-23T01:10:44.675Z,6.70
2017-11-23T01:13:12.129Z,6.13
2017-11-23T01:15:39.585Z,5.80
2017-11-23T01:18:06.974Z,6.63
2017-11-23T01:20:34.353Z,6.17
2017-11-23T01:23:01.746Z,6.33
2017-11-23T01:25:29.137Z,5.63
2017-11-23T01:27:56.526Z,6.60
2017-11-23T01:30:24.019Z,5.13
2017-11-23T01:32:51.474Z,5.13
2017-11-23T01:35:18.847Z,4.43
2017-11-23T01:37:46.223Z,5.10
2017-11-23T01:40:13.604Z,4.70
2017-11-23T01:42:40.991Z,5.13
2017-11-23T01:45:08.447Z,4.83
2017-11-23T01:47:35.903Z,5.10
2017-11-23T01:50:03.361Z,5.30
2017-11-23T01:52:30.743Z,5.10
2017-11-23T01:54:58.174Z,3.83
2017-11-23T01:57:25.631Z,4.57
2017-11-23T01:59:53.020Z,4.50
2017-11-23T02:02:20.399Z,4.60
2017-11-23T02:04:47.786Z,4.70
2017-11-23T02:07:15.168Z,4.23
2017-11-23T02:09:42.556Z,4.17
2017-11-23T02:12:09.923Z,5.00
2017-11-23T02:14:37.312Z,3.90
2017-11-23T02:17:04.692Z,4.23
2017-11-23T02:19:32.068Z,4.40
2017-11-23T02:21:59.443Z,4.77
2017-11-23T02:24:26.827Z,4.70
2017-11-23T02:26:54.208Z,4.37
2017-11-23T02:29:21.592Z,4.70
2017-11-23T02:31:48.959Z,4.65
2017-11-23T02:34:16.414Z,5.00
2017-11-23T02:36:43.797Z,5.07
2017-11-23T02:39:11.210Z,4.47
2017-11-23T02:41:38.657Z,4.50
2017-11-23T02:44:06.060Z,3.90
2017-11-23T02:46:33.490Z,4.00
2017-11-23T02:49:00.940Z,3.90
2017-11-23T02:51:28.389Z,3.60
2017-11-23T02:53:55.834Z,4.20
2017-11-23T02:56:23.221Z,3.90
2017-11-23T02:58:50.598Z,3.50
2017-11-23T03:01:17.989Z,4.10
2017-11-23T03:03:45.372Z,3.37
2017-11-23T03:06:12.759Z,3.63
2017-11-23T03:08:40.159Z,3.77
2017-11-23T03:11:07.549Z,4.33
2017-11-23T03:13:34.980Z,4.37
2017-11-23T03:16:02.438Z,4.70
2017-11-23T03:18:29.895Z,3.60
2017-11-23T03:20:57.349Z,3.90
2017-11-23T03:23:24.723Z,3.60
2017-11-23T03:25:52.162Z,4.17
2017-11-23T03:28:19.536Z,3.63
2017-11-23T03:30:46.940Z,3.70
2017-11-23T03:33:14.327Z,3.37
2017-11-23T03:35:41.777Z,3.50
2017-11-23T03:38:09.236Z,3.20
2017-11-23T03:40:36.692Z,3.17
2017-11-23T03:43:04.068Z,3.73
2017-11-23T03:45:31.452Z,3.43
2017-11-23T03:47:58.840Z,5.13
2017-11-23T03:50:26.217Z,3.13
2017-11-23T03:52:53.594Z,4.73
2017-11-23T03:55:20.971Z,3.77
2017-11-23T03:57:48.361Z,4.00
2017-11-23T04:00:15.743Z,3.80
2017-11-23T04:02:43.184Z,3.17
2017-11-23T04:05:10.555Z,3.43
2017-11-23T04:07:37.964Z,3.30
2017-11-23T04:10:05.447Z,3.30
2017-11-23T04:12:32.847Z,3.43
2017-11-23T04:15:00.227Z,3.00
2017-11-23T04:17:27.621Z,5.33
2017-11-23T04:19:55.080Z,3.20
2017-11-23T04:22:22.468Z,3.47
2017-11-23T04:24:49.856Z,3.30
2017-11-23T04:27:17.239Z,4.20
2017-11-23T04:29:44.692Z,3.20
2017-11-23T04:32:12.067Z,2.93
2017-11-23T04:34:39.503Z,3.13
2017-11-23T04:37:06.886Z,2.73
2017-11-23T04:39:34.287Z,3.10
2017-11-23T04:42:01.659Z,2.90
2017-11-23T04:44:29.050Z,4.87
2017-11-23T04:46:56.471Z,2.83
2017-11-23T04:49:23.871Z,2.80
2017-11-23T04:51:51.287Z,2.63
2017-11-23T04:54:18.671Z,2.63
2017-11-23T04:56:46.100Z,3.07
2017-11-23T04:59:13.558Z,3.30
2017-11-23T05:01:40.935Z,3.10
2017-11-23T05:04:08.360Z,3.30
2017-11-23T05:06:35.743Z,2.93
2017-11-23T05:09:03.140Z,3.40
2017-11-23T05:11:30.523Z,3.33
2017-11-23T05:13:57.983Z,3.30
2017-11-23T05:16:25.371Z,3.80
2017-11-23T05:18:52.747Z,3.30
2017-11-23T05:21:20.147Z,3.23
2017-11-23T05:23:47.604Z,3.10
2017-11-23T05:26:14.992Z,2.87
2017-11-23T05:28:42.416Z,3.40
2017-11-23T05:31:09.805Z,2.47
2017-11-23T05:33:37.188Z,3.07
2017-11-23T05:36:04.570Z,2.97
2017-11-23T05:38:31.951Z,3.60
2017-11-23T05:40:59.344Z,2.67
2017-11-23T05:43:26.724Z,3.37
2017-11-23T05:45:54.116Z,2.20
2017-11-23T05:48:21.507Z,2.90
2017-11-23T05:50:48.887Z,2.73
2017-11-23T05:53:16.364Z,2.80
2017-11-23T05:55:43.747Z,3.03
2017-11-23T05:58:11.131Z,3.33
2017-11-23T06:00:38.533Z,2.60
2017-11-23T06:03:05.992Z,3.37
2017-11-23T06:05:33.420Z,3.33
2017-11-23T06:08:00.897Z,3.17
2017-11-23T06:10:28.272Z,3.30
2017-11-23T06:12:55.709Z,3.33
2017-11-23T06:15:23.084Z,5.80
2017-11-23T06:17:50.471Z,3.27
2017-11-23T06:20:17.857Z,3.13
2017-11-23T06:22:45.246Z,3.60
2017-11-23T06:25:12.621Z,3.30
2017-11-23T06:27:40.019Z,3.40
2017-11-23T06:30:07.406Z,3.20
2017-11-23T06:32:34.851Z,3.80
2017-11-23T06:35:02.323Z,3.20
2017-11-23T06:37:29.691Z,3.00
2017-11-23T06:39:57.080Z,3.33
2017-11-23T06:42:24.567Z,3.20
2017-11-23T06:44:51.943Z,3.07
2017-11-23T06:47:19.327Z,4.27
2017-11-23T06:49:46.735Z,2.67
2017-11-23T06:52:14.123Z,3.73
2017-11-23T06:54:41.547Z,4.27
2017-11-23T06:57:08.968Z,3.93
2017-11-23T06:59:36.459Z,3.93
2017-11-23T07:02:03.916Z,3.10
2017-11-23T07:04:31.292Z,3.83
2017-11-23T07:06:58.671Z,3.53
2017-11-23T07:09:26.068Z,3.30
2017-11-23T07:11:53.466Z,3.20
2017-11-23T07:14:20.840Z,2.97
2017-11-23T07:16:48.249Z,3.43
2017-11-23T07:19:15.640Z,3.50
2017-11-23T07:21:43.028Z,4.60
2017-11-23T07:24:10.434Z,3.37
2017-11-23T07:26:37.803Z,3.60
2017-11-23T07:29:05.227Z,3.60
2017-11-23T07:31:32.607Z,3.50
2017-11-23T07:34:00.041Z,3.60
2017-11-23T07:36:27.517Z,4.10
2017-11-23T07:38:54.934Z,3.97
2017-11-23T07:41:22.316Z,4.03
2017-11-23T07:43:49.708Z,4.23
2017-11-23T07:46:17.108Z,3.50
2017-11-23T07:48:44.507Z,4.03
2017-11-23T07:51:11.920Z,3.87
2017-11-23T07:53:39.373Z,3.53
2017-11-23T07:56:06.756Z,4.20
2017-11-23T07:58:34.135Z,4.10
2017-11-23T08:01:01.519Z,4.67
2017-11-23T08:03:28.934Z,3.70
2017-11-23T08:05:56.343Z,3.57
2017-11-23T08:08:24.383Z,3.30
2017-11-23T08:10:51.764Z,4.13
2017-11-23T08:13:19.176Z,4.00
2017-11-23T08:15:46.565Z,3.90
2017-11-23T08:18:13.939Z,4.60
2017-11-23T08:20:41.412Z,4.33
2017-11-23T08:23:08.797Z,4.97
2017-11-23T08:25:36.208Z,4.03
2017-11-23T08:28:03.608Z,3.87
2017-11-23T08:30:30.997Z,3.73
2017-11-23T08:32:58.481Z,4.43
2017-11-23T08:35:25.880Z,4.20
2017-11-23T08:37:53.307Z,4.60
2017-11-23T08:40:20.725Z,4.50
2017-11-23T08:42:48.210Z,3.73
2017-11-23T08:45:15.585Z,3.70
2017-11-23T08:47:43.012Z,4.43
2017-11-23T08:50:10.404Z,3.93
2017-11-23T08:52:37.792Z,3.97
2017-11-23T08:55:05.183Z,3.90
2017-11-23T08:57:32.564Z,5.47
2017-11-23T08:59:59.955Z,5.43
2017-11-23T09:02:27.445Z,4.03
2017-11-23T09:04:54.895Z,4.27
2017-11-23T09:07:22.273Z,4.73
2017-11-23T09:09:49.656Z,4.20
2017-11-23T09:12:17.097Z,4.57
2017-11-23T09:14:44.520Z,3.73
2017-11-23T09:17:11.986Z,4.17
2017-11-23T09:19:39.379Z,4.30
2017-11-23T09:22:06.795Z,4.30
2017-11-23T09:24:34.189Z,4.60
2017-11-23T09:27:01.618Z,4.03
2017-11-23T09:29:28.995Z,4.13
2017-11-23T09:31:56.412Z,4.67
2017-11-23T09:34:23.864Z,4.07
2017-11-23T09:36:51.248Z,4.30
2017-11-23T09:39:18.661Z,4.57
2017-11-23T09:41:46.030Z,4.50
2017-11-23T09:44:13.421Z,5.53
2017-11-23T09:46:40.840Z,4.10
2017-11-23T09:49:08.228Z,4.03
2017-11-23T09:51:35.615Z,4.60
2017-11-23T09:54:03.123Z,4.30
2017-11-23T09:56:30.500Z,3.87
2017-11-23T09:58:57.883Z,5.20
2017-11-23T10:01:25.272Z,4.23
2017-11-23T10:03:52.662Z,3.80
2017-11-23T10:06:20.053Z,3.70
2017-11-23T10:08:47.446Z,3.80
2017-11-23T10:11:14.825Z,4.67
2017-11-23T10:13:42.250Z,4.20
2017-11-23T10:16:09.645Z,4.37
2017-11-23T10:18:37.060Z,4.03
2017-11-23T10:21:04.443Z,4.13
2017-11-23T10:23:31.867Z,4.60
2017-11-23T10:25:59.260Z,3.73
2017-11-23T10:28:26.650Z,4.07
2017-11-23T10:30:54.039Z,4.50
2017-11-23T10:33:21.494Z,4.47
2017-11-23T10:35:48.884Z,3.23
2017-11-23T10:38:16.304Z,4.33
2017-11-23T10:40:43.687Z,3.00
2017-11-23T10:43:11.067Z,3.20
2017-11-23T10:45:38.455Z,3.70
2017-11-23T10:48:05.847Z,3.93
2017-11-23T10:50:33.240Z,3.73
2017-11-23T10:53:00.631Z,4.17
2017-11-23T10:55:28.012Z,4.27
2017-11-23T10:57:55.399Z,4.20
2017-11-23T11:00:22.904Z,3.93
2017-11-23T11:02:50.292Z,3.80
2017-11-23T11:05:17.678Z,3.77
2017-11-23T11:07:45.068Z,3.57
2017-11-23T11:10:12.547Z,4.00
2017-11-23T11:12:39.950Z,4.13
2017-11-23T11:15:07.345Z,3.53
2017-11-23T11:17:34.737Z,3.33
2017-11-23T11:20:02.120Z,4.10
2017-11-23T11:22:29.603Z,3.60
2017-11-23T11:24:56.989Z,3.57
2017-11-23T11:27:24.375Z,3.30
2017-11-23T11:29:51.764Z,2.90
2017-11-23T11:32:19.228Z,3.33
2017-11-23T11:34:46.679Z,3.53
2017-11-23T11:37:14.073Z,3.80
2017-11-23T11:39:41.459Z,3.43
2017-11-23T11:42:08.851Z,3.73
2017-11-23T11:44:36.239Z,3.43
2017-11-23T11:47:03.632Z,3.53
2017-11-23T11:49:31.084Z,3.97
2017-11-23T11:51:58.468Z,3.60
2017-11-23T11:54:25.932Z,3.57
2017-11-23T11:56:53.379Z,3.70
2017-11-23T11:59:20.769Z,3.70
2017-11-23T12:01:48.162Z,3.87
2017-11-23T12:04:15.540Z,3.60
2017-11-23T12:06:42.937Z,3.20
2017-11-23T12:09:10.360Z,3.67
2017-11-23T12:11:37.817Z,2.90
2017-11-23T12:14:17.060Z,3.60
2017-11-23T12:20:01.320Z,3.30
2017-11-23T12:25:52.376Z,2.70
2017-11-23T12:28:31.783Z,2.80
2017-11-23T12:30:59.164Z,3.43
2017-11-23T12:33:26.558Z,3.30
2017-11-23T12:35:53.936Z,2.63
2017-11-23T12:38:21.331Z,2.67
2017-11-23T12:40:48.729Z,3.20
2017-11-23T12:43:16.106Z,2.90
2017-11-23T12:45:43.492Z,2.67
2017-11-23T12:48:10.929Z,3.07
2017-11-23T12:50:38.320Z,2.53
2017-11-23T12:53:05.739Z,3.20
2017-11-23T12:55:33.195Z,3.10
2017-11-23T12:58:00.664Z,2.40
2017-11-23T13:00:28.052Z,2.80
2017-11-23T13:02:55.439Z,3.10
2017-11-23T13:05:22.824Z,3.10
2017-11-23T13:07:50.283Z,2.90
2017-11-23T13:10:17.671Z,3.50
2017-11-23T13:12:45.052Z,3.00
2017-11-23T13:15:12.467Z,2.73
2017-11-23T13:17:39.924Z,2.87
2017-11-23T13:20:07.355Z,2.60
2017-11-23T13:22:34.737Z,2.90
2017-11-23T13:25:02.128Z,3.17
2017-11-23T13:27:29.507Z,3.60
2017-11-23T13:29:56.892Z,3.87
2017-11-23T13:32:24.280Z,3.30
2017-11-23T13:34:51.693Z,3.40
2017-11-23T13:37:19.080Z,3.43
2017-11-23T13:39:46.471Z,3.20
2017-11-23T13:42:13.851Z,6.10
2017-11-23T13:44:41.251Z,3.70
2017-11-23T13:47:08.634Z,3.60
2017-11-23T13:49:36.015Z,3.57
2017-11-23T13:52:03.409Z,3.20
2017-11-23T13:54:30.803Z,3.40
2017-11-23T13:56:58.180Z,3.20
2017-11-23T13:59:25.571Z,3.13
2017-11-23T14:01:52.950Z,3.10
2017-11-23T14:04:20.340Z,4.03
2017-11-23T14:06:47.812Z,3.33
2017-11-23T14:09:15.206Z,3.00
2017-11-23T14:11:42.590Z,3.20
2017-11-23T14:14:09.977Z,3.03
2017-11-23T14:16:37.380Z,2.80
2017-11-23T14:19:04.788Z,3.10
2017-11-23T14:21:32.248Z,3.77
2017-11-23T14:23:59.699Z,3.00
2017-11-23T14:26:27.091Z,3.70
2017-11-23T14:28:54.482Z,3.50
2017-11-23T14:31:21.887Z,3.03
2017-11-23T14:33:49.256Z,2.70
2017-11-23T14:36:16.670Z,3.33
2017-11-23T14:38:44.127Z,3.00
2017-11-23T14:41:11.584Z,3.07
2017-11-23T14:43:38.970Z,3.03
2017-11-23T14:46:06.343Z,2.50
2017-11-23T14:48:33.728Z,2.80
2017-11-23T14:51:01.143Z,2.80
2017-11-23T14:53:28.541Z,2.80
2017-11-23T14:55:55.923Z,3.10
2017-11-23T14:58:23.311Z,3.57
2017-11-23T15:00:50.688Z,3.47
2017-11-23T15:03:18.122Z,3.17
2017-11-23T15:05:45.572Z,3.20
2017-11-23T15:08:12.953Z,2.93
2017-11-23T15:10:40.339Z,4.40
2017-11-23T15:13:07.723Z,3.83
2017-11-23T15:15:35.119Z,7.80
2017-11-23T15:18:02.547Z,4.07
2017-11-23T15:20:29.927Z,4.13
2017-11-23T15:22:57.315Z,2.97
2017-11-23T15:25:24.700Z,3.10
2017-11-23T15:27:52.092Z,2.40
2017-11-23T15:30:19.481Z,2.83
2017-11-23T15:32:46.874Z,3.03
2017-11-23T15:35:14.345Z,2.80
2017-11-23T15:37:41.736Z,2.70
2017-11-23T15:40:09.154Z,3.07
2017-11-23T15:42:36.607Z,3.07
2017-11-23T15:45:04.068Z,2.77
2017-11-23T15:47:31.455Z,2.67
2017-11-23T15:49:58.848Z,2.70
2017-11-23T15:52:26.336Z,3.53
2017-11-23T15:54:53.724Z,3.17
2017-11-23T15:57:21.117Z,2.77
2017-11-23T15:59:48.600Z,3.07
2017-11-23T16:02:16.065Z,3.12
2017-11-23T16:04:43.447Z,3.03
2017-11-23T16:07:10.848Z,3.60
2017-11-23T16:09:38.224Z,3.13
2017-11-23T16:12:05.686Z,2.60
2017-11-23T16:14:33.158Z,2.73
2017-11-23T16:17:00.544Z,2.57
2017-11-23T16:19:27.923Z,3.20
2017-11-23T16:21:55.328Z,3.17
2017-11-23T16:24:22.700Z,2.50
2017-11-23T16:26:50.117Z,3.10
2017-11-23T16:29:17.503Z,3.07
2017-11-23T16:31:44.882Z,3.00
2017-11-23T16:34:12.285Z,2.80
2017-11-23T16:36:43.654Z,3.33
2017-11-23T16:39:13.569Z,3.03
2017-11-23T16:41:46.692Z,2.87
2017-11-23T16:44:19.591Z,3.30
2017-11-23T16:46:52.690Z,3.90
2017-11-23T16:49:25.569Z,3.83
2017-11-23T16:51:58.441Z,4.40
2017-11-23T16:54:31.568Z,4.50
2017-11-23T16:57:04.657Z,4.63
2017-11-23T16:59:32.807Z,4.93
2017-11-23T17:02:05.820Z,4.40
2017-11-23T17:04:40.596Z,4.70
2017-11-23T17:07:07.983Z,5.10
2017-11-23T17:09:35.376Z,7.00
2017-11-23T17:12:08.392Z,4.70
2017-11-23T17:14:41.300Z,5.70
2017-11-23T17:17:25.448Z,4.43
2017-11-23T17:19:52.950Z,4.57
2017-11-23T17:22:20.393Z,4.20
2017-11-23T17:24:47.849Z,4.17
2017-11-23T17:27:15.227Z,4.13
2017-11-23T17:29:42.770Z,4.50
2017-11-23T17:32:10.142Z,4.77
2017-11-23T17:34:37.540Z,4.80
2017-11-23T17:37:04.926Z,5.20
2017-11-23T17:39:32.383Z,5.83
2017-11-23T17:41:59.768Z,4.33
2017-11-23T17:44:27.170Z,5.67
2017-11-23T17:46:54.647Z,5.07
2017-11-23T17:49:22.051Z,4.60
2017-11-23T17:51:49.525Z,6.07
2017-11-23T17:54:16.911Z,7.20
2017-11-23T17:56:44.304Z,5.33
2017-11-23T17:59:11.723Z,5.03
2017-11-23T18:01:39.126Z,5.97
2017-11-23T18:04:06.512Z,4.47
2017-11-23T18:06:33.995Z,3.67
2017-11-23T18:09:01.379Z,4.27
2017-11-23T18:11:28.782Z,4.00
2017-11-23T18:13:56.160Z,3.60
2017-11-23T18:16:23.550Z,3.90
2017-11-23T18:18:50.971Z,3.97
2017-11-23T18:21:18.356Z,3.00
2017-11-23T18:23:45.745Z,3.00
2017-11-23T18:26:13.137Z,2.97
2017-11-23T18:28:40.521Z,2.73
2017-11-23T18:31:07.948Z,2.10
2017-11-23T18:33:35.335Z,3.20
2017-11-23T18:36:02.761Z,1.97
2017-11-23T18:38:30.156Z,2.77
2017-11-23T18:40:57.560Z,2.20
2017-11-23T18:43:24.944Z,1.97
2017-11-23T18:45:52.331Z,1.63
2017-11-23T18:48:19.741Z,2.00
2017-11-23T18:50:47.159Z,1.50
2017-11-23T18:53:14.547Z,1.60
2017-11-23T18:55:42.000Z,2.00
2017-11-23T18:58:09.462Z,1.90
2017-11-23T19:00:36.852Z,1.80
2017-11-23T19:03:04.243Z,2.30
2017-11-23T19:05:31.620Z,2.10
2017-11-23T19:07:59.080Z,2.33
2017-11-23T19:10:26.466Z,1.60
2017-11-23T19:12:53.864Z,2.57
2017-11-23T19:15:21.242Z,4.50
2017-11-23T19:17:48.632Z,2.10
2017-11-23T19:20:16.064Z,2.37
2017-11-23T19:22:43.452Z,2.60
2017-11-23T19:25:10.835Z,2.80
2017-11-23T19:27:38.228Z,3.90
2017-11-23T19:30:05.622Z,4.10
2017-11-23T19:32:33.063Z,2.70
2017-11-23T19:35:00.497Z,2.73
2017-11-23T19:37:27.903Z,2.00
2017-11-23T19:39:55.283Z,1.60
2017-11-23T19:42:22.675Z,1.73
2017-11-23T19:44:50.104Z,1.90
2017-11-23T19:47:17.522Z,1.73
2017-11-23T19:49:44.915Z,2.40
2017-11-23T19:52:12.307Z,1.50
2017-11-23T19:54:39.699Z,2.30
2017-11-23T19:57:07.190Z,2.10
2017-11-23T19:59:34.686Z,1.50
2017-11-23T20:02:02.083Z,2.00
2017-11-23T20:04:29.552Z,2.70
2017-11-23T20:06:56.941Z,2.20
2017-11-23T20:09:24.329Z,1.87
2017-11-23T20:11:51.735Z,2.23
2017-11-23T20:14:19.120Z,1.70
2017-11-23T20:16:46.499Z,2.00
2017-11-23T20:19:13.918Z,2.10
2017-11-23T20:21:41.291Z,2.10
2017-11-23T20:24:08.699Z,1.60
2017-11-23T20:26:36.128Z,2.30
2017-11-23T20:29:03.572Z,1.73
2017-11-23T20:31:30.959Z,1.47
2017-11-23T20:33:58.344Z,1.57
2017-11-23T20:36:25.744Z,1.50
2017-11-23T20:38:53.131Z,2.40
2017-11-23T20:41:20.563Z,1.37
2017-11-23T20:43:48.037Z,1.23
2017-11-23T20:46:15.407Z,1.40
2017-11-23T20:48:42.796Z,1.10
2017-11-23T20:51:10.183Z,1.10
2017-11-23T20:53:37.568Z,1.20
2017-11-23T20:56:04.984Z,1.23
2017-11-23T20:58:32.448Z,1.50
2017-11-23T21:00:59.936Z,1.50
2017-11-23T21:03:27.352Z,1.37
2017-11-23T21:05:54.731Z,1.67
2017-11-23T21:08:22.124Z,1.23
2017-11-23T21:10:49.547Z,1.60
2017-11-23T21:13:17.024Z,1.13
2017-11-23T21:15:44.408Z,1.30
2017-11-23T21:18:11.806Z,1.23
2017-11-23T21:20:39.206Z,1.10
2017-11-23T21:23:06.592Z,1.37
2017-11-23T21:25:34.004Z,1.30
2017-11-23T21:28:01.380Z,1.17
2017-11-23T21:30:28.812Z,1.63
2017-11-23T21:32:56.191Z,1.30
2017-11-23T21:35:23.616Z,1.40
2017-11-23T21:37:51.007Z,1.60
2017-11-23T21:40:18.430Z,1.20
2017-11-23T21:42:45.820Z,1.60
2017-11-23T21:45:13.207Z,1.40
2017-11-23T21:47:40.596Z,1.80
2017-11-23T21:50:07.989Z,1.87
2017-11-23T21:52:35.404Z,1.30
2017-11-23T21:55:02.792Z,2.20
2017-11-23T21:57:30.212Z,1.20
2017-11-23T21:59:57.616Z,2.27
2017-11-23T22:02:25.015Z,1.52
2017-11-23T22:04:52.482Z,1.50
2017-11-23T22:07:19.942Z,1.43
2017-11-23T22:09:47.319Z,1.80
2017-11-23T22:12:14.697Z,1.47
2017-11-23T22:14:42.104Z,1.40
2017-11-23T22:17:09.493Z,1.53
2017-11-23T22:19:36.923Z,1.40
2017-11-23T22:22:04.306Z,2.07
2017-11-23T22:24:31.693Z,1.70
2017-11-23T22:26:59.180Z,1.60
2017-11-23T22:29:26.564Z,1.70
2017-11-23T22:31:53.969Z,2.27
2017-11-23T22:34:21.348Z,2.37
2017-11-23T22:36:48.808Z,1.70
2017-11-23T22:39:16.264Z,2.30
2017-11-23T22:41:43.734Z,1.93
2017-11-23T22:44:11.114Z,1.40
2017-11-23T22:46:38.549Z,1.83
2017-11-23T22:49:05.978Z,2.00
2017-11-23T22:51:33.368Z,1.60
2017-11-23T22:54:00.757Z,1.80
2017-11-23T22:56:28.159Z,2.50
2017-11-23T22:58:55.540Z,3.80
2017-11-23T23:01:22.944Z,2.00
2017-11-23T23:03:50.333Z,1.80
2017-11-23T23:06:17.732Z,2.63
2017-11-23T23:08:45.124Z,3.27
2017-11-23T23:11:12.525Z,2.60
2017-11-23T23:13:39.915Z,2.40
2017-11-23T23:16:07.304Z,2.67
2017-11-23T23:18:34.691Z,3.47
2017-11-23T23:21:02.099Z,3.00
2017-11-23T23:23:29.483Z,4.23
2017-11-23T23:25:56.913Z,3.10
2017-11-23T23:28:24.296Z,3.00
2017-11-23T23:30:51.679Z,3.10
2017-11-23T23:33:19.075Z,2.83
2017-11-23T23:35:46.528Z,2.87
2017-11-23T23:38:13.920Z,3.40
2017-11-23T23:40:41.339Z,3.73
2017-11-23T23:43:08.723Z,3.50
2017-11-23T23:45:36.153Z,2.50
2017-11-23T23:48:03.544Z,4.60
2017-11-23T23:50:30.944Z,2.87
2017-11-23T23:52:58.348Z,2.67
2017-11-23T23:55:25.731Z,2.83
2017-11-23T23:57:53.128Z,2.90
